Time;durP1;ratioP1;P1;durP2;ratioP2;P2;SDS_P1;SDS_P2;PMS_P1;PMS_P2;Temp;Humidity;BMP_temperature;BMP_pressure;BME280_temperature;BME280_humidity;BME280_pressure;Samples;Min_cycle;Max_cycle;Signal;HPM_P1;HPM_P2
2023/11/10 00:01:11;;;;;;;52.05;30.45;;;;;;;2.23;100.00;93357.94;5047415;28;20059;-80
2023/11/10 00:03:39;;;;;;;56.53;31.63;;;;;;;1.98;100.00;93334.28;5050056;28;20052;-80
2023/11/10 00:06:06;;;;;;;48.20;30.35;;;;;;;2.01;100.00;93346.66;5049814;28;20069;-81
2023/11/10 00:08:33;;;;;;;47.85;29.92;;;;;;;2.06;100.00;93356.31;5048484;28;20048;-80
2023/11/10 00:11:00;;;;;;;54.75;29.70;;;;;;;2.02;100.00;93355.84;5050510;28;20053;-81
2023/11/10 00:13:27;;;;;;;51.72;28.95;;;;;;;1.95;100.00;93349.81;5047944;28;20070;-82
2023/11/10 00:15:54;;;;;;;57.70;28.55;;;;;;;1.69;100.00;93353.97;5051400;28;20064;-79
2023/11/10 00:18:22;;;;;;;46.65;27.42;;;;;;;1.79;100.00;93353.84;5048373;28;20049;-80
2023/11/10 00:20:50;;;;;;;52.80;27.88;;;;;;;1.80;100.00;93349.59;5049791;28;20049;-80
2023/11/10 00:23:18;;;;;;;48.15;27.60;;;;;;;1.99;100.00;93346.81;5047634;28;20431;-80
2023/11/10 00:25:45;;;;;;;48.63;27.42;;;;;;;2.11;100.00;93349.06;5050909;28;20045;-81
2023/11/10 00:28:12;;;;;;;54.45;30.35;;;;;;;2.26;100.00;93349.25;5047561;28;20057;-81
2023/11/10 00:30:39;;;;;;;53.40;31.23;;;;;;;2.08;100.00;93336.72;5049316;28;20493;-81
2023/11/10 00:33:05;;;;;;;55.83;28.70;;;;;;;2.05;100.00;93340.34;5048409;28;20049;-81
2023/11/10 00:35:33;;;;;;;46.20;26.85;;;;;;;2.05;100.00;93342.88;5048054;28;20107;-81
2023/11/10 00:38:02;;;;;;;49.83;27.33;;;;;;;2.00;100.00;93345.84;5046159;28;20048;-81
2023/11/10 00:40:30;;;;;;;47.35;25.75;;;;;;;2.13;100.00;93340.34;5048580;28;20041;-81
2023/11/10 00:42:57;;;;;;;50.72;27.75;;;;;;;2.09;100.00;93338.28;5048220;28;20130;-80
2023/11/10 00:45:25;;;;;;;53.35;29.63;;;;;;;2.01;100.00;93341.59;5047209;28;20050;-81
2023/11/10 00:47:52;;;;;;;54.15;29.60;;;;;;;2.11;100.00;93338.91;5047941;28;20057;-80
2023/11/10 00:50:19;;;;;;;56.10;30.70;;;;;;;1.99;100.00;93324.00;5047975;28;20053;-80
2023/11/10 00:52:45;;;;;;;47.50;28.50;;;;;;;2.15;100.00;93342.75;5049588;28;20049;-81
2023/11/10 00:55:16;;;;;;;49.75;31.52;;;;;;;2.16;100.00;93343.53;5049249;28;20049;-82
2023/11/10 00:57:44;;;;;;;52.40;30.75;;;;;;;2.11;100.00;93338.91;5049664;28;20479;-81
2023/11/10 01:00:12;;;;;;;45.25;28.05;;;;;;;2.19;100.00;93333.09;5047845;28;20331;-81
2023/11/10 01:02:39;;;;;;;43.92;26.85;;;;;;;2.09;100.00;93334.00;5058109;28;20135;-81
2023/11/10 01:05:08;;;;;;;43.15;26.35;;;;;;;1.94;100.00;93331.28;5048866;28;20054;-81
2023/11/10 01:07:35;;;;;;;36.78;23.17;;;;;;;1.94;100.00;93313.53;5050517;28;20110;-81
2023/11/10 01:10:02;;;;;;;34.67;22.17;;;;;;;1.95;100.00;93330.31;5048870;28;20114;-81
2023/11/10 01:12:30;;;;;;;32.15;21.73;;;;;;;2.03;100.00;93337.16;5047114;28;20877;-81
2023/11/10 01:14:57;;;;;;;43.13;26.52;;;;;;;1.87;100.00;93313.34;5054114;28;20516;-81
2023/11/10 01:17:24;;;;;;;50.60;29.52;;;;;;;1.75;100.00;93308.75;5058744;28;20067;-82
2023/11/10 01:19:51;;;;;;;50.30;31.73;;;;;;;1.82;100.00;93323.16;5061186;28;20049;-82
2023/11/10 01:22:17;;;;;;;52.97;32.47;;;;;;;1.66;100.00;93323.88;5049798;28;20566;-81
2023/11/10 01:24:44;;;;;;;43.80;26.33;;;;;;;1.58;100.00;93327.16;5046934;28;20783;-82
2023/11/10 01:27:11;;;;;;;38.83;25.52;;;;;;;1.57;100.00;93324.81;5047517;28;20052;-81
2023/11/10 01:29:41;;;;;;;35.92;21.95;;;;;;;1.42;100.00;93311.91;5065303;28;20048;-81
2023/11/10 01:32:14;;;;;;;35.00;21.75;;;;;;;1.49;100.00;93310.38;5054465;28;20049;-81
2023/11/10 01:34:41;;;;;;;32.20;20.30;;;;;;;1.52;100.00;93306.75;5051158;28;20097;-81
2023/11/10 01:37:08;;;;;;;29.45;18.15;;;;;;;1.59;100.00;93310.25;5053542;28;20053;-81
2023/11/10 01:39:35;;;;;;;25.42;17.15;;;;;;;1.70;100.00;93307.44;5059141;28;20052;-81
2023/11/10 01:42:04;;;;;;;28.92;18.27;;;;;;;1.79;100.00;93305.75;5057960;28;20068;-82
2023/11/10 01:44:30;;;;;;;34.15;18.67;;;;;;;1.78;100.00;93303.34;5050196;28;20048;-82
2023/11/10 01:47:00;;;;;;;29.55;18.15;;;;;;;1.89;100.00;93305.59;5056092;28;20060;-81
2023/11/10 01:49:27;;;;;;;29.33;18.98;;;;;;;2.06;100.00;93292.97;5046333;28;20049;-81
2023/11/10 01:51:55;;;;;;;31.15;17.92;;;;;;;2.10;100.00;93296.78;5047856;28;20076;-81
2023/11/10 01:54:25;;;;;;;25.77;17.27;;;;;;;2.28;100.00;93294.13;5047889;28;20102;-81
2023/11/10 01:56:53;;;;;;;27.23;17.30;;;;;;;2.31;100.00;93283.66;5047298;28;20053;-81
2023/11/10 01:59:20;;;;;;;26.27;15.70;;;;;;;2.38;100.00;93271.97;5047714;28;20064;-82
2023/11/10 02:01:47;;;;;;;28.13;16.95;;;;;;;2.54;100.00;93281.31;5048473;28;20114;-81
2023/11/10 02:04:17;;;;;;;25.38;16.98;;;;;;;2.53;100.00;93268.78;5047609;28;20053;-81
2023/11/10 02:06:46;;;;;;;24.90;15.75;;;;;;;2.48;100.00;93261.66;5053045;28;20091;-81
2023/11/10 02:09:13;;;;;;;25.70;15.98;;;;;;;2.57;100.00;93282.75;5050958;28;20088;-81
2023/11/10 02:11:40;;;;;;;23.67;14.73;;;;;;;2.61;100.00;93275.59;5048501;28;20155;-82
2023/11/10 02:14:09;;;;;;;25.35;14.80;;;;;;;2.60;100.00;93284.94;5047305;28;20505;-81
2023/11/10 02:16:36;;;;;;;29.90;16.05;;;;;;;2.65;100.00;93282.72;5047044;28;20056;-80
2023/11/10 02:19:04;;;;;;;21.75;15.25;;;;;;;2.57;100.00;93271.81;5056248;28;20052;-80
2023/11/10 02:21:33;;;;;;;24.40;15.90;;;;;;;2.55;100.00;93269.44;5055624;28;20056;-80
2023/11/10 02:24:03;;;;;;;23.80;15.02;;;;;;;2.56;100.00;93265.16;5054427;28;20131;-80
2023/11/10 02:26:31;;;;;;;26.73;16.23;;;;;;;2.52;100.00;93259.59;5062771;28;20420;-81
2023/11/10 02:28:58;;;;;;;22.42;14.55;;;;;;;2.48;100.00;93263.41;5055361;28;20564;-80
2023/11/10 02:31:25;;;;;;;22.92;15.35;;;;;;;2.35;100.00;93236.78;5050262;28;20056;-79
2023/11/10 02:33:53;;;;;;;26.27;16.40;;;;;;;2.56;100.00;93265.16;5051520;28;20049;-80
2023/11/10 02:36:20;;;;;;;23.15;15.13;;;;;;;2.57;100.00;93267.53;5051936;28;20049;-78
2023/11/10 02:38:47;;;;;;;22.25;14.57;;;;;;;2.60;100.00;93264.66;5052344;28;20544;-78
2023/11/10 02:41:14;;;;;;;24.00;13.70;;;;;;;2.54;100.00;93252.63;5050505;28;20056;-79
2023/11/10 02:43:43;;;;;;;18.63;14.63;;;;;;;2.53;100.00;93251.84;5059289;28;20052;-80
2023/11/10 02:46:10;;;;;;;20.00;13.30;;;;;;;2.59;100.00;93260.53;5049200;28;20056;-80
2023/11/10 02:48:37;;;;;;;19.85;12.43;;;;;;;2.58;100.00;93258.97;5049745;28;20063;-79
2023/11/10 02:51:05;;;;;;;18.27;12.90;;;;;;;2.63;100.00;93254.22;5050252;28;20044;-80
2023/11/10 02:53:32;;;;;;;17.20;13.05;;;;;;;2.59;100.00;93252.16;5043537;28;20118;-80
2023/11/10 02:56:01;;;;;;;18.65;13.35;;;;;;;2.56;100.00;93247.41;5043142;28;20041;-80
2023/11/10 02:58:28;;;;;;;21.35;13.73;;;;;;;2.65;100.00;93256.59;5039291;28;20159;-80
2023/11/10 03:00:56;;;;;;;19.95;13.98;;;;;;;2.61;100.00;93251.06;5050552;28;20045;-80
2023/11/10 03:03:23;;;;;;;22.33;14.80;;;;;;;2.65;100.00;93249.00;5048948;28;20052;-79
2023/11/10 03:05:50;;;;;;;25.73;16.17;;;;;;;2.44;100.00;93224.91;5054665;28;20041;-80
2023/11/10 03:08:17;;;;;;;23.83;15.23;;;;;;;2.41;100.00;93250.59;5051347;28;20068;-79
2023/11/10 03:10:44;;;;;;;23.25;15.63;;;;;;;2.47;100.00;93249.16;5051335;28;20076;-79
2023/11/10 03:13:10;;;;;;;22.77;15.18;;;;;;;2.46;100.00;93252.63;5049166;28;20057;-80
2023/11/10 03:15:37;;;;;;;22.48;14.95;;;;;;;2.46;100.00;93250.88;5054126;28;20056;-80
2023/11/10 03:18:06;;;;;;;20.77;14.43;;;;;;;2.50;100.00;93242.00;5052305;28;20552;-80
2023/11/10 03:20:33;;;;;;;21.75;13.75;;;;;;;2.60;100.00;93246.13;5048797;28;20118;-80
2023/11/10 03:23:00;;;;;;;21.42;13.73;;;;;;;2.60;100.00;93236.75;5061832;28;20500;-79
2023/11/10 03:25:28;;;;;;;23.05;14.52;;;;;;;2.83;100.00;93250.53;5057348;28;20041;-80
2023/11/10 03:27:55;;;;;;;31.08;21.30;;;;;;;2.82;100.00;93243.91;5061320;28;20803;-80
2023/11/10 03:30:22;;;;;;;24.20;17.02;;;;;;;2.77;100.00;93231.69;5056919;28;20037;-79
2023/11/10 03:32:49;;;;;;;21.13;14.77;;;;;;;2.85;100.00;93248.63;5049672;28;20053;-79
2023/11/10 03:35:18;;;;;;;22.05;14.82;;;;;;;2.86;100.00;93235.00;5049314;28;20049;-79
2023/11/10 03:37:44;;;;;;;21.73;13.60;;;;;;;2.92;100.00;93235.13;5049584;28;20045;-79
2023/11/10 03:40:14;;;;;;;65.35;24.83;;;;;;;2.49;100.00;93204.94;5053449;28;20060;-78
2023/11/10 03:42:41;;;;;;;24.48;13.98;;;;;;;2.57;100.00;93211.75;5064429;28;20608;-81
2023/11/10 03:45:10;;;;;;;25.10;12.95;;;;;;;2.50;100.00;93220.94;5057697;28;20055;-81
2023/11/10 03:47:36;;;;;;;28.27;16.05;;;;;;;2.56;100.00;93212.69;5047084;28;20052;-81
2023/11/10 03:50:03;;;;;;;29.42;15.52;;;;;;;2.55;100.00;93203.50;5050596;28;20064;-81
2023/11/10 03:52:32;;;;;;;27.33;15.15;;;;;;;2.67;100.00;93203.97;5053275;28;20040;-80
2023/11/10 03:54:58;;;;;;;30.95;15.07;;;;;;;2.68;100.00;93208.06;5053821;28;20127;-81
2023/11/10 03:57:25;;;;;;;20.33;13.18;;;;;;;2.64;100.00;93197.47;5049246;28;20053;-81
2023/11/10 03:59:52;;;;;;;25.65;13.95;;;;;;;2.72;100.00;93201.72;5051435;28;20074;-82
2023/11/10 04:02:19;;;;;;;30.25;13.40;;;;;;;2.68;100.00;93195.38;5055652;28;20055;-83
2023/11/10 04:04:46;;;;;;;25.33;14.05;;;;;;;2.74;100.00;93194.75;5053781;28;20041;-83
2023/11/10 04:07:14;;;;;;;31.15;14.45;;;;;;;2.75;100.00;93203.16;5050240;28;20053;-81
2023/11/10 04:09:42;;;;;;;28.45;15.15;;;;;;;2.62;100.00;93206.97;5057715;28;20131;-81
2023/11/10 04:12:09;;;;;;;20.30;14.23;;;;;;;2.59;100.00;93204.75;5050513;28;20052;-81
2023/11/10 04:14:37;;;;;;;24.00;16.65;;;;;;;2.51;100.00;93202.25;5047047;28;20053;-80
2023/11/10 04:17:06;;;;;;;24.33;15.32;;;;;;;2.44;100.00;93189.41;5048318;28;20155;-81
2023/11/10 04:19:33;;;;;;;24.20;16.70;;;;;;;2.25;100.00;93195.59;5055894;28;20045;-81
2023/11/10 04:22:00;;;;;;;28.52;16.00;;;;;;;2.25;100.00;93188.78;5047783;28;20049;-81
2023/11/10 04:24:26;;;;;;;34.17;18.23;;;;;;;2.25;100.00;93195.59;5053998;28;20049;-81
2023/11/10 04:26:55;;;;;;;39.20;20.48;;;;;;;2.00;100.00;93172.78;5055050;28;20052;-81
2023/11/10 04:29:21;;;;;;;24.75;16.98;;;;;;;2.08;100.00;93180.38;5051625;28;20041;-80
2023/11/10 04:31:48;;;;;;;35.30;19.95;;;;;;;2.11;100.00;93191.94;5052255;28;20056;-81
2023/11/10 04:34:15;;;;;;;27.15;15.75;;;;;;;2.09;100.00;93194.63;5048830;28;20508;-80
2023/11/10 04:36:43;;;;;;;58.08;25.05;;;;;;;2.10;100.00;93181.03;5048950;28;20049;-79
2023/11/10 04:39:10;;;;;;;51.83;23.08;;;;;;;2.11;100.00;93186.88;5051011;28;20052;-78
2023/11/10 04:41:39;;;;;;;36.53;21.35;;;;;;;2.19;100.00;93181.81;5060909;28;20057;-78
2023/11/10 04:44:08;;;;;;;44.85;22.17;;;;;;;2.15;100.00;93188.16;5054293;28;20044;-78
2023/11/10 04:46:40;;;;;;;36.47;19.70;;;;;;;2.16;100.00;93187.19;5047481;28;20055;-78
2023/11/10 04:49:07;;;;;;;28.27;17.40;;;;;;;2.16;100.00;93182.13;5047914;28;20087;-79
2023/11/10 04:51:34;;;;;;;37.15;19.67;;;;;;;2.10;100.00;93167.56;5054768;28;20056;-81
2023/11/10 04:54:00;;;;;;;38.28;20.55;;;;;;;2.18;100.00;93179.44;5044370;28;20053;-81
2023/11/10 04:56:27;;;;;;;34.92;21.30;;;;;;;2.11;100.00;93154.75;5047202;28;20068;-80
2023/11/10 04:58:54;;;;;;;29.75;18.88;;;;;;;2.34;100.00;93173.56;5046557;28;20045;-80
2023/11/10 05:01:25;;;;;;;37.35;20.08;;;;;;;2.33;100.00;93166.91;5051612;28;20076;-80
2023/11/10 05:03:52;;;;;;;27.15;17.67;;;;;;;2.38;100.00;93175.63;5048845;28;20051;-80
2023/11/10 05:06:29;;;;;;;33.15;18.17;;;;;;;2.48;100.00;93172.13;5049369;28;20052;-80
2023/11/10 05:08:56;;;;;;;27.67;16.83;;;;;;;2.50;100.00;93175.31;5049432;28;20060;-80
2023/11/10 05:11:23;;;;;;;38.85;23.58;;;;;;;2.48;100.00;93175.47;5049476;28;20836;-80
2023/11/10 05:13:49;;;;;;;37.30;22.83;;;;;;;2.25;100.00;93165.97;5051106;28;20052;-79
2023/11/10 05:16:17;;;;;;;46.83;27.65;;;;;;;2.03;100.00;93136.22;5051062;28;20053;-80
2023/11/10 05:18:45;;;;;;;49.42;28.63;;;;;;;2.26;100.00;93156.63;5050062;28;20070;-80
2023/11/10 05:21:12;;;;;;;52.97;31.77;;;;;;;2.47;100.00;93181.50;5059799;28;20068;-79
2023/11/10 05:23:40;;;;;;;57.28;31.17;;;;;;;2.50;100.00;93175.31;5051695;28;20418;-79
2023/11/10 05:26:07;;;;;;;62.67;33.97;;;;;;;2.38;100.00;93157.91;5049367;28;20497;-79
2023/11/10 05:28:34;;;;;;;70.13;41.63;;;;;;;2.39;100.00;93158.66;5046673;28;20048;-79
2023/11/10 05:31:01;;;;;;;62.83;36.08;;;;;;;2.65;100.00;93178.75;5051656;28;20052;-81
2023/11/10 05:33:29;;;;;;;58.35;32.45;;;;;;;2.60;100.00;93188.59;5058361;28;20055;-80
2023/11/10 05:35:57;;;;;;;58.65;31.95;;;;;;;2.60;100.00;93187.81;5048775;28;20802;-79
2023/11/10 05:38:24;;;;;;;56.78;29.77;;;;;;;2.71;100.00;93191.75;5054137;28;20520;-79
2023/11/10 05:40:51;;;;;;;55.80;28.77;;;;;;;2.65;100.00;93185.59;5036655;28;20049;-78
2023/11/10 05:43:18;;;;;;;49.65;27.48;;;;;;;2.77;100.00;93194.44;5048285;28;20048;-76
2023/11/10 05:45:45;;;;;;;55.50;28.92;;;;;;;2.83;100.00;93197.28;5050408;28;20075;-78
2023/11/10 05:48:12;;;;;;;62.22;32.17;;;;;;;2.85;100.00;93193.63;5050669;28;20064;-78
2023/11/10 05:50:38;;;;;;;53.17;30.23;;;;;;;2.83;100.00;93189.66;5052711;28;20044;-78
2023/11/10 05:53:07;;;;;;;56.25;30.60;;;;;;;2.93;100.00;93195.34;5065119;28;20122;-78
2023/11/10 05:55:34;;;;;;;54.00;29.58;;;;;;;2.90;100.00;93182.97;5050080;28;20094;-78
2023/11/10 05:58:01;;;;;;;52.47;29.08;;;;;;;3.00;100.00;93190.41;5047238;28;20060;-79
2023/11/10 06:00:28;;;;;;;48.08;26.63;;;;;;;3.01;100.00;93186.94;5050419;28;20037;-80
2023/11/10 06:02:55;;;;;;;48.45;27.70;;;;;;;3.10;100.00;93175.00;5050144;28;20053;-80
2023/11/10 06:05:23;;;;;;;50.78;28.33;;;;;;;3.15;100.00;93181.16;5058466;28;20060;-79
2023/11/10 06:07:51;;;;;;;50.88;28.67;;;;;;;3.15;100.00;93171.00;5057766;28;20610;-80
2023/11/10 06:10:21;;;;;;;52.13;28.58;;;;;;;3.20;100.00;93152.75;5050911;28;20439;-79
2023/11/10 06:12:49;;;;;;;47.28;27.90;;;;;;;3.26;100.00;93163.97;5051454;28;20154;-79
2023/11/10 06:15:19;;;;;;;62.75;33.10;;;;;;;3.39;100.00;93166.78;5048526;28;20072;-80
2023/11/10 06:17:45;;;;;;;77.43;44.67;;;;;;;3.46;100.00;93185.47;5054768;28;20499;-80
2023/11/10 06:20:13;;;;;;;75.10;45.13;;;;;;;3.53;100.00;93183.06;5062969;28;20059;-80
2023/11/10 06:22:40;;;;;;;60.67;34.70;;;;;;;3.55;100.00;93176.06;5066915;28;20082;-79
2023/11/10 06:25:09;;;;;;;57.03;32.88;;;;;;;3.67;100.00;93173.94;5050423;28;20515;-80
2023/11/10 06:27:38;;;;;;;52.50;31.10;;;;;;;3.43;100.00;93137.53;5059386;28;20049;-80
2023/11/10 06:33:41;;;;;;;45.65;28.35;;;;;;;2.76;100.00;93002.59;4983435;28;20066;-80
2023/11/10 06:36:09;;;;;;;47.03;26.48;;;;;;;3.94;100.00;93164.22;4984877;28;20169;-80
2023/11/10 06:38:37;;;;;;;50.20;26.90;;;;;;;3.99;100.00;93144.16;5040643;28;20044;-79
2023/11/10 06:41:04;;;;;;;44.72;24.50;;;;;;;4.12;100.00;93163.16;5060777;28;20040;-79
2023/11/10 06:43:32;;;;;;;37.40;22.23;;;;;;;4.18;100.00;93171.84;5056122;28;20076;-79
2023/11/10 06:45:59;;;;;;;38.97;22.73;;;;;;;4.21;100.00;93151.16;5049847;28;20056;-79
2023/11/10 06:48:27;;;;;;;42.28;24.27;;;;;;;4.22;100.00;93160.38;5049373;28;20051;-80
2023/11/10 06:50:54;;;;;;;41.28;24.80;;;;;;;4.36;100.00;93174.84;5063045;28;20049;-80
2023/11/10 06:53:21;;;;;;;50.63;29.02;;;;;;;4.12;100.00;93158.06;5065692;28;20048;-80
2023/11/10 06:55:48;;;;;;;39.80;25.25;;;;;;;4.04;100.00;93148.75;5049792;28;20044;-80
2023/11/10 06:58:16;;;;;;;42.22;25.42;;;;;;;3.85;100.00;93155.09;5053515;28;20493;-80
2023/11/10 07:00:45;;;;;;;41.83;26.25;;;;;;;3.96;100.00;93158.97;5050978;28;20049;-80
2023/11/10 07:03:15;;;;;;;46.80;28.98;;;;;;;3.96;100.00;93156.44;5052476;28;20049;-80
2023/11/10 07:05:42;;;;;;;46.90;25.60;;;;;;;3.92;100.00;93150.09;5049751;28;20126;-78
2023/11/10 07:08:10;;;;;;;40.63;24.70;;;;;;;3.89;100.00;93148.69;5052721;28;20075;-79
2023/11/10 07:10:41;;;;;;;36.30;23.20;;;;;;;3.77;100.00;93134.81;5055055;28;20504;-79
2023/11/10 07:13:08;;;;;;;39.80;23.02;;;;;;;3.98;100.00;93145.13;5050500;28;20503;-79
2023/11/10 07:15:35;;;;;;;39.97;24.02;;;;;;;3.97;100.00;93138.47;5053523;28;20051;-78
2023/11/10 07:18:03;;;;;;;53.75;32.00;;;;;;;4.15;100.00;93134.84;5049837;28;20057;-79
2023/11/10 07:20:30;;;;;;;62.95;34.05;;;;;;;4.26;100.00;93136.97;5051133;28;20524;-79
2023/11/10 07:22:58;;;;;;;45.60;27.42;;;;;;;4.37;100.00;93133.22;5065746;28;20055;-79
2023/11/10 07:26:03;;;;;;;25.73;14.30;;;;;;;4.42;100.00;93112.34;5058874;28;20063;-79
2023/11/10 07:28:31;;;;;;;;;;;;;;;4.96;100.00;93130.88;5048761;28;20541;-79
2023/11/10 07:30:58;;;;;;;9.63;6.78;;;;;;;5.22;100.00;93127.88;5058098;28;19969;-79
2023/11/10 07:33:26;;;;;;;8.68;5.00;;;;;;;5.45;100.00;93121.03;5060745;28;20048;-79
2023/11/10 07:35:54;;;;;;;8.30;4.70;;;;;;;5.65;100.00;93139.06;5052185;28;20060;-79
2023/11/10 07:38:21;;;;;;;6.68;3.92;;;;;;;5.88;100.00;93133.03;5048342;28;20455;-79
2023/11/10 07:40:48;;;;;;;5.70;3.95;;;;;;;6.19;100.00;93138.78;5049295;28;20072;-79
2023/11/10 07:43:17;;;;;;;7.55;4.03;;;;;;;6.37;100.00;93128.16;5049098;28;20059;-78
2023/11/10 07:45:45;;;;;;;9.38;6.05;;;;;;;6.53;100.00;93140.63;5046961;28;20451;-79
2023/11/10 07:48:13;;;;;;;7.80;4.65;;;;;;;6.59;100.00;93105.13;5047168;28;20056;-78
2023/11/10 07:50:42;;;;;;;8.23;4.53;;;;;;;6.91;100.00;93134.38;5048871;28;20048;-78
2023/11/10 07:53:09;;;;;;;6.07;4.55;;;;;;;7.08;100.00;93124.63;5047591;28;20056;-79
2023/11/10 07:55:38;;;;;;;8.73;4.80;;;;;;;7.26;100.00;93123.31;5052269;28;20048;-79
2023/11/10 07:58:05;;;;;;;12.13;5.30;;;;;;;7.44;100.00;93116.88;5051582;28;20967;-79
2023/11/10 08:00:33;;;;;;;6.57;4.25;;;;;;;7.69;100.00;93114.59;5055637;28;20513;-78
2023/11/10 08:03:00;;;;;;;6.82;4.00;;;;;;;7.80;100.00;93117.56;5053815;28;20059;-79
2023/11/10 08:05:27;;;;;;;5.25;3.45;;;;;;;7.94;100.00;93111.50;5050216;28;20056;-79
2023/11/10 08:07:55;;;;;;;5.90;4.22;;;;;;;8.02;100.00;93116.41;5049896;28;20560;-79
2023/11/10 08:10:22;;;;;;;9.90;4.47;;;;;;;8.19;100.00;93110.13;5050427;28;20056;-79
2023/11/10 08:12:53;;;;;;;6.97;4.63;;;;;;;8.37;100.00;93114.63;5049350;28;20131;-80
2023/11/10 08:15:20;;;;;;;5.95;4.00;;;;;;;8.49;100.00;93120.75;5052025;28;20052;-79
2023/11/10 08:17:46;;;;;;;9.23;4.18;;;;;;;8.68;100.00;93111.50;5050120;28;20061;-79
2023/11/10 08:20:13;;;;;;;9.40;4.18;;;;;;;8.84;100.00;93112.03;5052668;28;20049;-79
2023/11/10 08:22:40;;;;;;;5.65;3.45;;;;;;;9.01;100.00;93111.59;5049338;28;20045;-78
2023/11/10 08:25:11;;;;;;;5.32;3.90;;;;;;;9.16;100.00;93109.56;5048400;28;20967;-79
2023/11/10 08:27:38;;;;;;;11.93;4.35;;;;;;;9.27;100.00;93118.41;5054566;28;20530;-79
2023/11/10 08:30:09;;;;;;;7.13;3.20;;;;;;;9.35;100.00;93120.75;5051400;28;20044;-78
2023/11/10 08:32:36;;;;;;;6.30;3.45;;;;;;;9.40;100.00;93112.44;5051077;28;20562;-78
2023/11/10 08:35:03;;;;;;;6.65;3.67;;;;;;;9.42;100.00;93107.09;5050087;28;20817;-78
2023/11/10 08:37:30;;;;;;;7.13;3.88;;;;;;;9.48;100.00;93109.66;5051296;28;20045;-78
2023/11/10 08:39:57;;;;;;;9.93;4.85;;;;;;;9.54;100.00;93110.59;5050180;28;20138;-77
2023/11/10 08:42:25;;;;;;;10.57;5.63;;;;;;;9.44;100.00;93071.81;5052168;28;20071;-79
2023/11/10 08:44:52;;;;;;;6.55;3.90;;;;;;;9.79;100.00;93115.00;5048369;28;21105;-78
2023/11/10 08:47:19;;;;;;;8.10;4.28;;;;;;;9.87;100.00;93104.47;5053653;28;20048;-79
2023/11/10 08:49:46;;;;;;;7.13;3.45;;;;;;;10.02;100.00;93108.53;5053996;28;20044;-79
2023/11/10 08:52:14;;;;;;;7.03;4.25;;;;;;;10.19;100.00;93100.31;5048839;28;20045;-79
2023/11/10 08:54:41;;;;;;;6.47;3.17;;;;;;;10.12;100.00;93085.75;5057497;28;20048;-78
2023/11/10 08:57:08;;;;;;;4.57;2.72;;;;;;;10.23;100.00;93088.66;5056468;28;20053;-79
2023/11/10 08:59:36;;;;;;;7.57;4.05;;;;;;;10.37;100.00;93087.53;5048328;28;20094;-78
2023/11/10 09:02:03;;;;;;;5.82;3.30;;;;;;;10.37;100.00;93086.75;5049928;28;20071;-78
2023/11/10 09:04:30;;;;;;;5.07;3.42;;;;;;;10.50;100.00;93094.34;5053671;28;21226;-78
2023/11/10 09:06:57;;;;;;;4.93;3.20;;;;;;;10.53;100.00;93080.31;5048973;28;20060;-79
2023/11/10 09:09:23;;;;;;;4.60;2.97;;;;;;;10.61;100.00;93079.25;5060016;28;20052;-78
2023/11/10 09:11:50;;;;;;;9.13;2.63;;;;;;;10.68;100.00;93085.09;5047937;28;20083;-78
2023/11/10 09:14:17;;;;;;;4.75;2.97;;;;;;;10.67;100.00;93073.25;5047263;28;20052;-78
2023/11/10 09:16:45;;;;;;;6.13;3.53;;;;;;;10.71;100.00;93084.69;5048220;28;20052;-78
2023/11/10 09:22:40;;;;;;;5.60;3.53;;;;;;;10.62;100.00;93073.91;4930235;28;20051;-79
2023/11/10 09:25:09;;;;;;;5.93;3.90;;;;;;;10.72;100.00;93067.47;5009499;28;20049;-78
2023/11/10 09:27:42;;;;;;;5.15;2.85;;;;;;;10.89;100.00;93068.50;5047396;28;20045;-78
2023/11/10 09:30:11;;;;;;;5.80;2.75;;;;;;;10.83;100.00;93049.56;5062699;28;20053;-79
2023/11/10 09:32:39;;;;;;;6.75;4.18;;;;;;;10.98;100.00;93050.19;5061176;28;20168;-78
2023/11/10 09:35:06;;;;;;;5.65;2.90;;;;;;;11.04;100.00;93055.28;5060033;28;20493;-79
2023/11/10 09:37:33;;;;;;;4.32;3.00;;;;;;;11.11;100.00;93042.31;5065135;28;20185;-79
2023/11/10 09:40:00;;;;;;;4.65;3.10;;;;;;;11.12;100.00;93027.69;5054748;28;20045;-79
2023/11/10 09:42:28;;;;;;;4.97;2.88;;;;;;;11.23;100.00;93045.75;5051987;28;20413;-79
2023/11/10 09:44:56;;;;;;;5.55;2.67;;;;;;;11.20;100.00;93053.13;5052849;28;20389;-78
2023/11/10 09:47:25;;;;;;;5.28;3.00;;;;;;;11.13;100.00;93053.19;5049739;28;20171;-79
2023/11/10 09:49:54;;;;;;;4.05;3.08;;;;;;;11.14;100.00;93053.97;5047790;28;20049;-79
2023/11/10 09:52:23;;;;;;;6.05;2.92;;;;;;;11.07;100.00;93046.34;5050809;28;20390;-78
2023/11/10 09:54:52;;;;;;;5.97;3.30;;;;;;;11.04;100.00;93037.28;5053776;28;20045;-78
2023/11/10 09:57:21;;;;;;;5.72;3.28;;;;;;;11.02;100.00;93023.84;5050929;28;20523;-79
2023/11/10 09:59:49;;;;;;;10.35;4.90;;;;;;;11.01;100.00;93008.66;5050960;28;20060;-78
2023/11/10 10:02:16;;;;;;;11.07;6.18;;;;;;;11.08;100.00;93004.22;5053291;28;20060;-79
2023/11/10 10:04:44;;;;;;;9.73;6.15;;;;;;;10.91;100.00;92983.47;5050873;28;20080;-79
2023/11/10 10:07:13;;;;;;;6.57;3.28;;;;;;;10.94;100.00;92988.94;5050283;28;20049;-78
2023/11/10 10:09:41;;;;;;;7.95;3.92;;;;;;;10.97;100.00;92987.72;5055497;28;20048;-78
2023/11/10 10:12:10;;;;;;;5.75;2.78;;;;;;;10.93;100.00;92976.34;5059735;28;20044;-78
2023/11/10 10:14:37;;;;;;;5.63;3.28;;;;;;;10.99;100.00;92978.03;5061333;28;20257;-78
2023/11/10 10:17:06;;;;;;;5.55;3.42;;;;;;;11.02;100.00;92951.88;5052522;28;20051;-78
2023/11/10 10:19:33;;;;;;;10.38;3.67;;;;;;;11.11;100.00;92951.59;5052127;28;20076;-78
2023/11/10 10:22:00;;;;;;;5.85;3.72;;;;;;;10.94;100.00;92914.41;5059172;28;20056;-78
2023/11/10 10:24:29;;;;;;;6.25;3.10;;;;;;;11.13;100.00;92937.50;5055412;28;20060;-78
2023/11/10 10:26:57;;;;;;;7.82;3.55;;;;;;;11.27;100.00;92932.97;5052203;28;20469;-78
2023/11/10 10:29:24;;;;;;;9.23;4.07;;;;;;;11.42;100.00;92924.03;5054651;28;20053;-78
2023/11/10 10:31:51;;;;;;;7.63;3.13;;;;;;;11.59;100.00;92921.59;5056462;28;20055;-78
2023/11/10 10:34:18;;;;;;;7.35;3.00;;;;;;;11.76;100.00;92922.50;5052501;28;20969;-78
2023/11/10 10:36:45;;;;;;;10.35;3.83;;;;;;;11.84;100.00;92913.66;5051527;28;20044;-78
2023/11/10 10:39:17;;;;;;;7.88;3.90;;;;;;;11.93;100.00;92914.09;5054992;28;20098;-78
2023/11/10 10:41:46;;;;;;;6.88;3.65;;;;;;;11.95;99.92;92903.59;5051938;28;20048;-78
2023/11/10 10:44:16;;;;;;;9.63;4.40;;;;;;;12.12;100.00;92903.69;5053485;28;20052;-78
2023/11/10 10:46:43;;;;;;;11.93;3.80;;;;;;;12.23;98.81;92920.16;5052008;28;20052;-78
2023/11/10 10:49:12;;;;;;;8.57;3.38;;;;;;;12.23;98.62;92902.13;5051866;28;20053;-78
2023/11/10 10:51:39;;;;;;;9.07;3.30;;;;;;;12.32;97.95;92918.81;5054413;28;20056;-78
2023/11/10 10:54:08;;;;;;;4.93;2.90;;;;;;;12.28;96.82;92917.69;5055057;28;20063;-78
2023/11/10 10:56:37;;;;;;;7.93;3.42;;;;;;;12.27;97.38;92904.00;5054888;28;20044;-78
2023/11/10 10:59:06;;;;;;;7.55;3.40;;;;;;;12.22;98.33;92883.31;5050679;28;20059;-78
2023/11/10 11:01:34;;;;;;;7.35;3.05;;;;;;;12.13;98.18;92869.25;5050432;28;20049;-78
2023/11/10 11:04:20;;;;;;;7.03;2.67;;;;;;;12.17;97.36;92883.19;5050728;28;20052;-78
2023/11/10 11:07:12;;;;;;;7.13;3.10;;;;;;;12.32;99.47;92894.81;5052310;28;20049;-78
2023/11/10 11:09:58;;;;;;;4.25;2.70;;;;;;;12.46;97.95;92901.28;5049544;28;20126;-78
2023/11/10 11:13:06;;;;;;;5.60;2.90;;;;;;;12.49;98.05;92902.63;5050938;28;20518;-77
2023/11/10 11:15:40;;;;;;;4.68;3.25;;;;;;;12.47;98.04;92886.59;5051203;28;20053;-78
2023/11/10 11:18:36;;;;;;;7.47;3.05;;;;;;;12.51;96.83;92867.88;5050073;28;20126;-77
2023/11/10 11:21:03;;;;;;;9.45;3.80;;;;;;;12.61;97.72;92869.09;5045962;28;20048;-77
2023/11/10 11:23:35;;;;;;;6.97;3.25;;;;;;;12.78;97.80;92869.13;5052371;28;20080;-78
2023/11/10 11:26:04;;;;;;;8.15;3.30;;;;;;;12.67;97.08;92819.19;5051157;28;20057;-77
2023/11/10 11:28:34;;;;;;;7.68;2.63;;;;;;;13.02;96.01;92858.69;5054181;28;20060;-77
2023/11/10 11:31:10;;;;;;;10.45;3.00;;;;;;;12.91;94.35;92853.38;5053340;28;20499;-77
2023/11/10 11:33:45;;;;;;;7.65;3.50;;;;;;;12.77;93.78;92831.50;5050923;28;20565;-78